Terminal Aerodrome Forecast
Issued by NWS Shreveport, LA

Home | Current Version | Previous Version | Text Only | Print | Product List | Glossary On
Versions: 1 2 3 4 5 6 7 8 9 10 11 12 13 14
198
FTUS44 KSHV 181731
TAFSHV
TAF
KSHV 181731Z 1818/1918 26018G27KT P6SM SCT030 BKN035
      TEMPO 1818/1820 29020G31KT BKN030
     FM182000 31021G31KT P6SM SCT035 BKN280
     FM190000 34017G25KT P6SM BKN280
     FM190300 34013G20KT P6SM SCT280
     FM190600 34009KT P6SM SKC
     FM191500 36012KT P6SM SKC=

USA.gov is the U.S. government's official web portal to all federal, state and local government web resources and services.